Time;durP1;ratioP1;P1;durP2;ratioP2;P2;SDS_P1;SDS_P2;PMS_P1;PMS_P2;Temp;Humidity;BMP_temperature;BMP_pressure;BME280_temperature;BME280_humidity;BME280_pressure;Samples;Min_cycle;Max_cycle;Signal;HPM_P1;HPM_P2
2022/10/10 00:00:20;;;;;;;1999.90;999.90;;;10.60;99.90;;;;;;5072224;28;20454;-68
2022/10/10 00:02:47;;;;;;;1999.90;999.90;;;10.70;99.90;;;;;;5071721;28;20443;-68
2022/10/10 00:05:14;;;;;;;1999.90;999.90;;;10.70;99.90;;;;;;5071810;28;20474;-68
2022/10/10 00:07:41;;;;;;;1999.90;999.90;;;10.70;99.90;;;;;;5071628;28;21056;-68
2022/10/10 00:10:08;;;;;;;1999.90;999.90;;;10.70;99.90;;;;;;5071738;28;20849;-68
2022/10/10 00:12:35;;;;;;;1999.90;999.90;;;10.60;99.90;;;;;;5071938;28;20466;-68
2022/10/10 00:15:02;;;;;;;1999.90;999.90;;;10.60;99.90;;;;;;5072447;28;20473;-68
2022/10/10 00:17:30;;;;;;;1999.90;999.90;;;10.50;99.90;;;;;;5072261;28;20451;-68
2022/10/10 00:19:57;;;;;;;1999.90;999.90;;;10.50;99.90;;;;;;5072098;28;20523;-68
2022/10/10 00:22:24;;;;;;;1999.90;999.90;;;10.60;99.90;;;;;;5071357;28;20443;-68
2022/10/10 00:24:51;;;;;;;1999.90;999.90;;;10.60;99.90;;;;;;5070934;28;20447;-68
2022/10/10 00:27:18;;;;;;;1999.90;999.90;;;10.60;99.90;;;;;;5071942;28;20446;-68
2022/10/10 00:29:44;;;;;;;1999.90;999.90;;;10.60;99.90;;;;;;5071397;28;20486;-68
2022/10/10 00:32:11;;;;;;;1999.90;999.90;;;10.60;99.90;;;;;;5071173;28;20446;-68
2022/10/10 00:34:39;;;;;;;1999.90;999.90;;;10.50;99.90;;;;;;5071123;28;20470;-68
2022/10/10 00:37:06;;;;;;;1999.90;999.90;;;10.70;99.90;;;;;;5071215;28;20468;-68
2022/10/10 00:39:33;;;;;;;1999.90;999.90;;;10.60;99.90;;;;;;5071103;28;20955;-68
2022/10/10 00:41:59;;;;;;;1999.90;999.90;;;10.60;99.90;;;;;;5071043;28;20459;-69
2022/10/10 00:44:27;;;;;;;1999.90;999.90;;;10.70;99.90;;;;;;5070914;28;20949;-68
2022/10/10 00:46:55;;;;;;;1999.90;999.90;;;10.60;99.90;;;;;;5071121;28;20937;-68
2022/10/10 00:49:24;;;;;;;1999.90;999.90;;;10.70;99.90;;;;;;5070876;28;20483;-69
2022/10/10 00:51:55;;;;;;;1999.90;999.90;;;10.60;99.90;;;;;;5070572;28;20451;-69
2022/10/10 00:54:24;;;;;;;1999.90;999.90;;;10.60;99.90;;;;;;5071147;28;20446;-69
2022/10/10 00:56:55;;;;;;;1999.90;999.90;;;10.80;99.90;;;;;;5070712;28;20482;-69
2022/10/10 00:59:23;;;;;;;1999.90;999.90;;;10.70;99.90;;;;;;5071062;28;20440;-68
2022/10/10 01:01:49;;;;;;;1999.90;999.90;;;10.90;99.90;;;;;;5070365;28;20439;-68
2022/10/10 01:04:31;;;;;;;1999.90;999.90;;;10.90;99.90;;;;;;5070726;28;20472;-68
2022/10/10 01:07:01;;;;;;;1999.90;999.90;;;10.90;99.90;;;;;;5070566;28;20464;-68
2022/10/10 01:09:28;;;;;;;1999.90;999.90;;;10.90;99.90;;;;;;5070756;28;20479;-68
2022/10/10 01:12:01;;;;;;;1999.90;999.90;;;10.90;99.90;;;;;;5070220;28;20439;-68
2022/10/10 01:14:37;;;;;;;1999.90;999.90;;;11.00;99.90;;;;;;5070700;28;20465;-68
2022/10/10 01:17:18;;;;;;;1999.90;999.90;;;11.00;99.90;;;;;;5070356;28;20469;-68
2022/10/10 01:20:16;;;;;;;1999.90;999.90;;;11.00;99.90;;;;;;5070900;28;20445;-68
2022/10/10 01:22:59;;;;;;;1999.90;999.90;;;11.00;99.90;;;;;;5070157;28;20470;-68
2022/10/10 01:25:29;;;;;;;1999.90;999.90;;;11.00;99.90;;;;;;5070512;28;20463;-68
2022/10/10 01:28:02;;;;;;;1999.90;999.90;;;11.10;99.90;;;;;;5070201;28;20937;-68
2022/10/10 01:30:30;;;;;;;1999.90;999.90;;;11.20;99.90;;;;;;5070331;28;20900;-68
2022/10/10 01:33:06;;;;;;;1999.90;999.90;;;11.00;99.90;;;;;;5069775;28;20447;-68
2022/10/10 01:35:45;;;;;;;1999.90;999.90;;;11.00;99.90;;;;;;5069531;28;20481;-68
2022/10/10 01:38:24;;;;;;;1999.90;999.90;;;11.00;99.90;;;;;;5070163;28;20450;-68
2022/10/10 01:40:56;;;;;;;1999.90;999.90;;;11.10;99.90;;;;;;5069821;28;20961;-68
2022/10/10 01:43:25;;;;;;;1999.90;999.90;;;11.00;99.90;;;;;;5069618;28;20809;-68
2022/10/10 01:45:54;;;;;;;1999.90;999.90;;;11.10;99.90;;;;;;5070001;28;20470;-68
2022/10/10 01:48:24;;;;;;;1999.90;999.90;;;11.10;99.90;;;;;;5069620;28;20447;-68
2022/10/10 01:51:16;;;;;;;1999.90;999.90;;;11.10;99.90;;;;;;5069475;28;20941;-68
2022/10/10 01:53:48;;;;;;;1999.90;999.90;;;11.20;99.90;;;;;;5069918;28;20443;-68
2022/10/10 01:56:28;;;;;;;1999.90;999.90;;;11.20;99.90;;;;;;5069664;28;20474;-68
2022/10/10 01:59:11;;;;;;;1999.90;999.90;;;11.10;99.90;;;;;;5070100;28;20442;-67
2022/10/10 02:01:46;;;;;;;1999.90;999.90;;;11.10;99.90;;;;;;5069254;28;20940;-68
2022/10/10 02:04:23;;;;;;;1999.90;999.90;;;11.10;99.90;;;;;;5069721;28;20446;-68
2022/10/10 02:06:53;;;;;;;1999.90;999.90;;;11.10;99.90;;;;;;5069433;28;20466;-68
2022/10/10 02:09:29;;;;;;;1999.90;999.90;;;11.10;99.90;;;;;;5069971;28;20479;-67
2022/10/10 02:11:58;;;;;;;1999.90;999.90;;;11.10;99.90;;;;;;5069337;28;20443;-68
2022/10/10 02:14:30;;;;;;;1999.90;999.90;;;11.10;99.90;;;;;;5069590;28;20963;-68
2022/10/10 02:17:01;;;;;;;1999.90;999.90;;;11.10;99.90;;;;;;5069453;28;20467;-68
2022/10/10 02:19:30;;;;;;;1999.90;999.90;;;11.20;99.90;;;;;;5069544;28;20438;-67
2022/10/10 02:21:57;;;;;;;1999.90;999.90;;;11.20;99.90;;;;;;5069178;28;20443;-68
2022/10/10 02:24:24;;;;;;;1999.90;999.90;;;11.20;99.90;;;;;;5069648;28;20940;-69
2022/10/10 02:26:56;;;;;;;1999.90;999.90;;;11.20;99.90;;;;;;5069419;28;20475;-68
2022/10/10 02:29:26;;;;;;;1999.90;999.90;;;11.20;99.90;;;;;;5069706;28;20475;-68
2022/10/10 02:31:57;;;;;;;1999.90;999.90;;;11.30;99.90;;;;;;5069263;28;20442;-68
2022/10/10 02:34:29;;;;;;;1999.90;999.90;;;11.20;99.90;;;;;;5069923;28;20478;-68
2022/10/10 02:36:59;;;;;;;1999.90;999.90;;;11.30;99.90;;;;;;5069718;28;20506;-68
2022/10/10 02:39:30;;;;;;;1999.90;999.90;;;11.30;99.90;;;;;;5069695;28;20447;-68
2022/10/10 02:41:56;;;;;;;1999.90;999.90;;;11.30;99.90;;;;;;5069178;28;20450;-69
2022/10/10 02:44:25;;;;;;;1999.90;999.90;;;11.20;99.90;;;;;;5069125;28;20447;-69
2022/10/10 02:46:51;;;;;;;1999.90;999.90;;;11.30;99.90;;;;;;5071112;28;20474;-69
2022/10/10 02:49:24;;;;;;;1999.90;999.90;;;11.30;99.90;;;;;;5072958;28;20470;-69
2022/10/10 02:51:52;;;;;;;1999.90;999.90;;;11.30;99.90;;;;;;5072978;28;20534;-68
2022/10/10 02:54:19;;;;;;;1999.90;999.90;;;11.20;99.90;;;;;;5073090;28;20477;-68
2022/10/10 02:56:46;;;;;;;1999.90;999.90;;;11.20;99.90;;;;;;5073360;28;20471;-69
2022/10/10 02:59:13;;;;;;;1999.90;999.90;;;11.20;99.90;;;;;;5073563;28;20447;-68
2022/10/10 03:01:39;;;;;;;1999.90;999.90;;;11.10;99.90;;;;;;5072979;28;20521;-68
2022/10/10 03:04:07;;;;;;;1999.90;999.90;;;11.00;99.90;;;;;;5072977;28;20820;-68
2022/10/10 03:06:33;;;;;;;1999.90;999.90;;;11.00;99.90;;;;;;5073024;28;20463;-68
2022/10/10 03:09:02;;;;;;;1999.90;999.90;;;10.90;99.90;;;;;;5072833;28;20458;-68
2022/10/10 03:11:29;;;;;;;1999.90;999.90;;;11.00;99.90;;;;;;5072588;28;20450;-69
2022/10/10 03:13:56;;;;;;;1999.90;999.90;;;10.90;99.90;;;;;;5072673;28;21040;-68
2022/10/10 03:16:23;;;;;;;1999.90;999.90;;;10.80;99.90;;;;;;5072435;28;20980;-68
2022/10/10 03:18:49;;;;;;;1999.90;999.90;;;10.80;99.90;;;;;;5072670;28;20443;-68
2022/10/10 03:21:16;;;;;;;1999.90;999.90;;;10.70;99.90;;;;;;5072483;28;20451;-68
2022/10/10 03:23:43;;;;;;;1999.90;999.90;;;10.70;99.90;;;;;;5072396;28;20951;-68
2022/10/10 03:26:11;;;;;;;1999.90;999.90;;;10.70;99.90;;;;;;5072329;28;20470;-68
2022/10/10 03:28:38;;;;;;;1999.90;999.90;;;10.60;99.90;;;;;;5072518;28;21108;-68
2022/10/10 03:31:05;;;;;;;1999.90;999.90;;;10.60;99.90;;;;;;5072195;28;20490;-68
2022/10/10 03:33:33;;;;;;;1999.90;999.90;;;10.60;99.90;;;;;;5072256;28;20451;-68
2022/10/10 03:36:00;;;;;;;1999.90;999.90;;;10.60;99.90;;;;;;5071456;28;20483;-68
2022/10/10 03:38:27;;;;;;;1999.90;999.90;;;10.50;99.90;;;;;;5071447;28;20989;-69
2022/10/10 03:40:54;;;;;;;1999.90;999.90;;;10.50;99.90;;;;;;5071994;28;21165;-69
2022/10/10 03:43:22;;;;;;;1999.90;999.90;;;10.40;99.90;;;;;;5071870;28;20447;-68
2022/10/10 03:45:49;;;;;;;1999.90;999.90;;;10.30;99.90;;;;;;5072226;28;20466;-68
2022/10/10 03:48:16;;;;;;;1999.90;999.90;;;10.20;99.90;;;;;;5072176;28;20436;-68
2022/10/10 03:50:42;;;;;;;1999.90;999.90;;;10.20;99.90;;;;;;5071811;28;20487;-69
2022/10/10 03:53:09;;;;;;;1999.90;999.90;;;10.20;99.90;;;;;;5071741;28;20435;-68
2022/10/10 03:55:39;;;;;;;1999.90;999.90;;;10.30;99.90;;;;;;5071809;28;20481;-68
2022/10/10 03:58:06;;;;;;;1999.90;999.90;;;10.40;99.90;;;;;;5071848;28;20450;-68
2022/10/10 04:00:34;;;;;;;1999.90;999.90;;;10.50;99.90;;;;;;5071776;28;20439;-69
2022/10/10 04:03:05;;;;;;;1999.90;999.90;;;10.50;99.90;;;;;;5071682;28;20735;-68
2022/10/10 04:05:32;;;;;;;1999.90;999.90;;;10.50;99.90;;;;;;5071790;28;20463;-68
2022/10/10 04:07:59;;;;;;;1999.90;999.90;;;10.50;99.90;;;;;;5071518;28;20446;-69
2022/10/10 04:10:26;;;;;;;1999.90;999.90;;;10.60;99.90;;;;;;5072019;28;20494;-68
2022/10/10 04:12:53;;;;;;;1999.90;999.90;;;10.60;99.90;;;;;;5071290;28;20447;-68
2022/10/10 04:15:19;;;;;;;1999.90;999.90;;;10.50;99.90;;;;;;5071617;28;20466;-68
2022/10/10 04:17:48;;;;;;;1999.90;999.90;;;10.50;99.90;;;;;;5071283;28;20439;-68
2022/10/10 04:20:15;;;;;;;1999.90;999.90;;;10.50;99.90;;;;;;5071630;28;20462;-68
2022/10/10 04:22:42;;;;;;;1999.90;999.90;;;10.50;99.90;;;;;;5071133;28;20446;-68
2022/10/10 04:25:10;;;;;;;1999.90;999.90;;;10.50;99.90;;;;;;5071540;28;20462;-68
2022/10/10 04:27:36;;;;;;;1999.90;999.90;;;10.50;99.90;;;;;;5071702;28;20439;-68
2022/10/10 04:30:04;;;;;;;1999.90;999.90;;;10.50;99.90;;;;;;5071306;28;20481;-68
2022/10/10 04:32:31;;;;;;;1999.90;999.90;;;10.50;99.90;;;;;;5071132;28;20443;-68
2022/10/10 04:34:59;;;;;;;1999.90;999.90;;;10.50;99.90;;;;;;5070985;28;20475;-68
2022/10/10 04:37:25;;;;;;;1999.90;999.90;;;10.50;99.90;;;;;;5071138;28;21151;-68
2022/10/10 04:39:52;;;;;;;1999.90;999.90;;;10.50;99.90;;;;;;5070950;28;20447;-68
2022/10/10 04:42:19;;;;;;;1999.90;999.90;;;10.50;99.90;;;;;;5071138;28;20453;-68
2022/10/10 04:44:46;;;;;;;1999.90;999.90;;;10.50;99.90;;;;;;5071213;28;20458;-67
2022/10/10 04:47:12;;;;;;;1999.90;999.90;;;10.40;99.90;;;;;;5071115;28;20459;-68
2022/10/10 04:49:40;;;;;;;1999.90;999.90;;;10.40;99.90;;;;;;5070914;28;20479;-72
2022/10/10 04:52:09;;;;;;;1999.90;999.90;;;10.30;99.90;;;;;;5070936;28;20534;-68
2022/10/10 04:54:36;;;;;;;1999.90;999.90;;;10.30;99.90;;;;;;5071239;28;20833;-70
2022/10/10 04:57:03;;;;;;;1999.90;999.90;;;10.30;99.90;;;;;;5071006;28;20459;-69
2022/10/10 04:59:30;;;;;;;1999.90;999.90;;;10.30;99.90;;;;;;5071115;28;20813;-69
2022/10/10 05:01:57;;;;;;;1999.90;999.90;;;10.30;99.90;;;;;;5064547;28;20452;-69
2022/10/10 05:04:23;;;;;;;1999.90;999.90;;;10.30;99.90;;;;;;5055386;28;20447;-71
2022/10/10 05:06:50;;;;;;;1999.90;999.90;;;10.20;99.90;;;;;;5056003;28;20987;-69
2022/10/10 05:09:18;;;;;;;1999.90;999.90;;;10.10;99.90;;;;;;5052937;28;20830;-68
2022/10/10 05:11:45;;;;;;;1999.90;999.90;;;10.10;99.90;;;;;;5053029;28;20451;-69
2022/10/10 05:14:12;;;;;;;1999.90;999.90;;;10.10;99.90;;;;;;5061968;28;20462;-68
2022/10/10 05:16:38;;;;;;;1999.90;999.90;;;10.00;99.90;;;;;;5065881;28;20543;-68
2022/10/10 05:19:05;;;;;;;1999.90;999.90;;;10.00;99.90;;;;;;5069651;28;20443;-69
2022/10/10 05:21:32;;;;;;;1999.90;999.90;;;9.90;99.90;;;;;;5068993;28;20913;-68
2022/10/10 05:23:59;;;;;;;1999.90;999.90;;;9.90;99.90;;;;;;5069025;28;20447;-69
2022/10/10 05:26:27;;;;;;;1999.90;999.90;;;9.90;99.90;;;;;;5070337;28;20466;-69
2022/10/10 05:28:54;;;;;;;1999.90;999.90;;;9.90;99.90;;;;;;5070103;28;20452;-70
2022/10/10 05:31:21;;;;;;;1999.90;999.90;;;9.80;99.90;;;;;;5069839;28;20518;-69
2022/10/10 05:33:48;;;;;;;1999.90;999.90;;;9.80;99.90;;;;;;5070186;28;20442;-69
2022/10/10 05:36:14;;;;;;;1999.90;999.90;;;10.00;99.90;;;;;;5069875;28;21026;-68
2022/10/10 05:38:42;;;;;;;1999.90;999.90;;;10.10;99.90;;;;;;5070190;28;20443;-69
2022/10/10 05:41:09;;;;;;;1999.90;999.90;;;10.10;99.90;;;;;;5069933;28;20435;-69
2022/10/10 05:43:37;;;;;;;1999.90;999.90;;;10.20;99.90;;;;;;5069879;28;20454;-69
2022/10/10 05:46:05;;;;;;;1999.90;999.90;;;10.10;99.90;;;;;;5069997;28;20489;-67
2022/10/10 05:48:32;;;;;;;1999.90;999.90;;;10.10;99.90;;;;;;5070414;28;20447;-68
2022/10/10 05:50:59;;;;;;;1999.90;999.90;;;10.00;99.90;;;;;;5069712;28;20479;-68
2022/10/10 05:53:28;;;;;;;1999.90;999.90;;;10.00;99.90;;;;;;5069613;28;20451;-70
2022/10/10 05:55:55;;;;;;;1999.90;999.90;;;10.00;99.90;;;;;;5069400;28;20475;-70
2022/10/10 05:58:22;;;;;;;1999.90;999.90;;;10.00;99.90;;;;;;5069116;28;20451;-70
2022/10/10 06:00:50;;;;;;;1999.90;999.90;;;10.00;99.90;;;;;;5069711;28;20443;-70
2022/10/10 06:03:16;;;;;;;1999.90;999.90;;;9.90;99.90;;;;;;5069631;28;20451;-69
2022/10/10 06:05:44;;;;;;;1999.90;999.90;;;10.00;99.90;;;;;;5069599;28;20459;-69
2022/10/10 06:08:11;;;;;;;1999.90;999.90;;;10.00;99.90;;;;;;5069630;28;20443;-68
2022/10/10 06:10:40;;;;;;;1999.90;999.90;;;10.00;99.90;;;;;;5069428;28;20482;-69
2022/10/10 06:13:07;;;;;;;1999.90;999.90;;;10.10;99.90;;;;;;5069470;28;20458;-68
2022/10/10 06:15:34;;;;;;;1999.90;999.90;;;10.20;99.90;;;;;;5069639;28;20463;-69
2022/10/10 06:18:02;;;;;;;1999.90;999.90;;;10.20;99.90;;;;;;5069784;28;20450;-69
2022/10/10 06:20:29;;;;;;;1999.90;999.90;;;10.20;99.90;;;;;;5068921;28;20448;-69
2022/10/10 06:22:56;;;;;;;1999.90;999.90;;;10.20;99.90;;;;;;5069344;28;20454;-69
2022/10/10 06:25:22;;;;;;;1999.90;999.90;;;10.20;99.90;;;;;;5069537;28;20461;-70
2022/10/10 06:27:49;;;;;;;1999.90;999.90;;;10.20;99.90;;;;;;5069571;28;20460;-69
2022/10/10 06:30:16;;;;;;;1999.90;999.90;;;10.30;99.90;;;;;;5069453;28;20478;-69
2022/10/10 06:32:43;;;;;;;1999.90;999.90;;;10.40;99.90;;;;;;5069343;28;20448;-69
2022/10/10 06:35:11;;;;;;;1999.90;999.90;;;10.50;99.90;;;;;;5069502;28;22582;-69
2022/10/10 06:37:38;;;;;;;1999.90;999.90;;;10.60;99.90;;;;;;5069559;28;20458;-69
2022/10/10 06:40:05;;;;;;;1999.90;999.90;;;10.70;99.90;;;;;;5069553;28;20446;-69
2022/10/10 06:42:32;;;;;;;1999.90;999.90;;;10.80;99.90;;;;;;5069362;28;20447;-69
2022/10/10 06:44:59;;;;;;;1999.90;999.90;;;10.90;99.90;;;;;;5069577;28;20861;-70
2022/10/10 06:47:26;;;;;;;1999.90;999.90;;;11.10;99.90;;;;;;5069440;28;20461;-69
2022/10/10 06:49:53;;;;;;;1999.90;999.90;;;11.30;99.90;;;;;;5069583;28;20493;-69
2022/10/10 06:52:21;;;;;;;1999.90;999.90;;;11.30;99.90;;;;;;5069104;28;20454;-69
2022/10/10 06:54:48;;;;;;;1999.90;999.90;;;11.30;99.90;;;;;;5069293;28;20454;-69
2022/10/10 06:57:15;;;;;;;1999.90;999.90;;;11.40;99.90;;;;;;5069132;28;20973;-68
2022/10/10 06:59:41;;;;;;;1999.90;999.90;;;11.40;99.90;;;;;;5069648;28;20451;-69
2022/10/10 07:02:12;;;;;;;1999.90;999.90;;;11.50;99.90;;;;;;5069063;28;20827;-69
2022/10/10 07:04:39;;;;;;;1999.90;999.90;;;11.50;99.90;;;;;;5069299;28;20937;-69
2022/10/10 07:07:06;;;;;;;1999.90;999.90;;;11.50;99.90;;;;;;5069191;28;20466;-70
2022/10/10 07:09:34;;;;;;;1999.90;999.90;;;11.60;99.90;;;;;;5069120;28;20446;-69
2022/10/10 07:12:00;;;;;;;1999.90;999.90;;;11.70;99.90;;;;;;5068527;28;20482;-69
2022/10/10 07:14:27;;;;;;;1999.90;999.90;;;11.70;99.90;;;;;;5069305;28;20447;-69
2022/10/10 07:16:54;;;;;;;1999.90;999.90;;;11.70;99.90;;;;;;5069082;28;20502;-69
2022/10/10 07:19:23;;;;;;;1999.90;999.90;;;11.80;99.90;;;;;;5069405;28;20814;-69
2022/10/10 07:21:50;;;;;;;1999.90;999.90;;;11.90;99.90;;;;;;5068892;28;20545;-69
2022/10/10 07:24:17;;;;;;;1999.90;999.90;;;11.90;99.90;;;;;;5069601;28;20447;-69
2022/10/10 07:26:45;;;;;;;1999.90;999.90;;;12.10;99.90;;;;;;5069273;28;20471;-69
2022/10/10 07:29:12;;;;;;;1999.90;999.90;;;12.30;99.90;;;;;;5069562;28;20458;-69
2022/10/10 07:31:39;;;;;;;1999.90;999.90;;;12.40;99.90;;;;;;5069057;28;20475;-69
2022/10/10 07:34:06;;;;;;;1999.90;999.90;;;12.50;99.90;;;;;;5072320;28;20451;-68
2022/10/10 07:36:32;;;;;;;1999.90;999.90;;;12.70;99.90;;;;;;5072523;28;20470;-69
2022/10/10 07:38:59;;;;;;;1999.90;999.90;;;12.90;99.90;;;;;;5072587;28;20829;-69
2022/10/10 07:41:26;;;;;;;1999.90;999.90;;;13.10;99.90;;;;;;5072139;28;20450;-69
2022/10/10 07:43:57;;;;;;;1999.90;999.90;;;13.30;99.90;;;;;;5072165;28;20439;-69
2022/10/10 07:46:24;;;;;;;1999.90;999.90;;;13.60;99.90;;;;;;5072246;28;20844;-69
2022/10/10 07:48:51;;;;;;;1999.90;999.90;;;13.60;99.90;;;;;;5072154;28;20908;-69
2022/10/10 07:51:18;;;;;;;1999.90;999.90;;;13.60;99.90;;;;;;5072220;28;20486;-68
2022/10/10 07:53:44;;;;;;;1999.90;999.90;;;13.60;99.90;;;;;;5072028;28;20450;-71
2022/10/10 07:56:11;;;;;;;1999.90;999.90;;;13.60;99.90;;;;;;5072186;28;20463;-71
2022/10/10 07:58:39;;;;;;;1999.90;999.90;;;13.60;99.90;;;;;;5072207;28;20822;-72
2022/10/10 08:01:09;;;;;;;1999.90;999.90;;;13.80;99.90;;;;;;5071840;28;20456;-72
2022/10/10 08:03:36;;;;;;;1999.90;999.90;;;14.00;99.90;;;;;;5071868;28;20186;-70
2022/10/10 08:06:04;;;;;;;1999.90;999.90;;;14.20;99.90;;;;;;5060894;28;20991;-70
2022/10/10 08:08:31;;;;;;;1999.90;999.90;;;14.50;99.90;;;;;;5060432;28;20470;-70
2022/10/10 08:10:58;;;;;;;1999.90;999.90;;;14.80;99.90;;;;;;5051960;28;20483;-70
2022/10/10 08:13:24;;;;;;;1999.90;999.90;;;15.10;99.90;;;;;;5047805;28;20459;-70
2022/10/10 08:15:51;;;;;;;1999.90;999.90;;;15.40;99.90;;;;;;5047740;28;20494;-70
2022/10/10 08:18:19;;;;;;;1999.90;999.90;;;15.70;99.90;;;;;;5048032;28;20452;-70
2022/10/10 08:20:46;;;;;;;1999.90;999.90;;;16.00;99.90;;;;;;5047647;28;20447;-70
2022/10/10 08:23:13;;;;;;;1999.90;999.90;;;16.30;99.90;;;;;;5047716;28;20453;-70
2022/10/10 08:25:40;;;;;;;1999.90;999.90;;;16.60;99.90;;;;;;5047503;28;20468;-70
2022/10/10 08:28:06;;;;;;;1999.90;999.90;;;16.80;99.90;;;;;;5047612;28;20957;-70
2022/10/10 08:30:33;;;;;;;1999.90;999.90;;;17.10;99.90;;;;;;5047452;28;20447;-71
2022/10/10 08:33:00;;;;;;;1999.90;999.90;;;17.10;99.90;;;;;;5047786;28;20831;-70
2022/10/10 08:35:28;;;;;;;1999.90;999.90;;;17.20;99.90;;;;;;5046854;28;21307;-69
2022/10/10 08:37:55;;;;;;;1999.90;999.90;;;17.10;99.90;;;;;;5057521;28;20444;-70
2022/10/10 08:40:27;;;;;;;1999.90;999.90;;;17.10;99.90;;;;;;5054852;28;20449;-68
2022/10/10 08:42:56;;;;;;;1999.90;999.90;;;17.10;99.90;;;;;;5063699;28;20470;-70
2022/10/10 08:45:26;;;;;;;1999.90;999.90;;;17.00;99.90;;;;;;5066784;28;20485;-69
2022/10/10 08:47:56;;;;;;;1999.90;999.90;;;16.90;99.90;;;;;;5062665;28;20452;-69
2022/10/10 08:50:27;;;;;;;1999.90;999.90;;;16.90;99.90;;;;;;5047081;28;20455;-69
2022/10/10 08:53:00;;;;;;;1999.90;999.90;;;16.90;99.90;;;;;;5047126;28;20459;-70
2022/10/10 08:55:32;;;;;;;1999.90;999.90;;;17.00;99.90;;;;;;5046659;28;20552;-69
2022/10/10 08:58:02;;;;;;;1999.90;999.90;;;17.10;99.90;;;;;;5047656;28;20539;-68
2022/10/10 09:00:32;;;;;;;1999.90;999.90;;;17.30;99.90;;;;;;5048862;28;20444;-69
2022/10/10 09:03:00;;;;;;;1999.90;999.90;;;17.60;99.90;;;;;;5047633;28;20450;-69
2022/10/10 09:05:42;;;;;;;1999.90;999.90;;;17.70;99.90;;;;;;5047573;28;20471;-69
2022/10/10 09:08:30;;;;;;;1999.90;999.90;;;18.00;99.90;;;;;;5047321;28;21270;-68
2022/10/10 09:10:59;;;;;;;1999.90;999.90;;;18.20;99.90;;;;;;5060974;28;20479;-69
2022/10/10 09:13:32;;;;;;;1999.90;999.90;;;18.40;99.90;;;;;;5047385;28;20447;-70
2022/10/10 09:16:02;;;;;;;1999.90;999.90;;;18.30;99.90;;;;;;5046963;28;20464;-70
2022/10/10 09:18:40;;;;;;;1999.90;999.90;;;18.50;99.90;;;;;;5048146;28;20808;-70
2022/10/10 09:21:15;;;;;;;1999.90;999.90;;;18.70;99.90;;;;;;5047403;28;20790;-69
2022/10/10 09:23:48;;;;;;;1999.90;999.90;;;18.40;99.90;;;;;;5047002;28;21101;-69
2022/10/10 09:26:17;;;;;;;1999.90;999.90;;;18.30;99.90;;;;;;5046549;28;20460;-68
2022/10/10 09:28:50;;;;;;;1999.90;999.90;;;18.00;99.90;;;;;;5046345;28;20436;-69
2022/10/10 09:31:19;;;;;;;1999.90;999.90;;;18.20;99.90;;;;;;5046207;28;20483;-69
2022/10/10 09:33:53;;;;;;;1999.90;999.90;;;18.40;99.90;;;;;;5046234;28;20451;-70
2022/10/10 09:36:24;;;;;;;1999.90;999.90;;;18.50;99.90;;;;;;5046143;28;20472;-70
2022/10/10 09:38:56;;;;;;;1999.90;999.90;;;18.30;99.90;;;;;;5046173;28;20486;-69
2022/10/10 09:41:29;;;;;;;1999.90;999.90;;;18.30;99.90;;;;;;5046648;28;20926;-69
2022/10/10 09:43:58;;;;;;;1999.90;999.90;;;18.50;99.90;;;;;;5047364;28;20448;-70
2022/10/10 09:46:26;;;;;;;1999.90;999.90;;;18.90;99.90;;;;;;5046056;28;20468;-69
2022/10/10 09:48:54;;;;;;;1999.90;999.90;;;19.40;99.90;;;;;;5046189;28;20813;-70
2022/10/10 09:51:21;;;;;;;1999.90;999.90;;;20.00;99.90;;;;;;5045612;28;20484;-69
2022/10/10 09:53:49;;;;;;;1999.90;999.90;;;20.40;99.90;;;;;;5046077;28;20531;-70
2022/10/10 09:56:22;;;;;;;1999.90;999.90;;;20.90;99.90;;;;;;5045461;28;20456;-69
2022/10/10 09:58:51;;;;;;;1999.90;999.90;;;21.20;99.90;;;;;;5046149;28;20440;-69
2022/10/10 10:01:20;;;;;;;1999.90;999.90;;;21.20;99.90;;;;;;5045929;28;20444;-69
2022/10/10 10:04:13;;;;;;;1999.90;999.90;;;21.40;99.90;;;;;;5044472;28;20456;-69
2022/10/10 10:06:43;;;;;;;1999.90;999.90;;;21.70;99.90;;;;;;5045814;28;20565;-69
2022/10/10 10:09:15;;;;;;;1999.90;999.90;;;22.10;99.90;;;;;;5045672;28;20440;-69
2022/10/10 10:11:45;;;;;;;1999.90;999.90;;;22.50;99.90;;;;;;5045538;28;20484;-69
2022/10/10 10:14:24;;;;;;;1999.90;999.90;;;22.50;99.90;;;;;;5065230;28;20876;-69
2022/10/10 10:16:52;;;;;;;1999.90;999.90;;;22.70;99.90;;;;;;5065715;28;20524;-69
2022/10/10 10:19:34;;;;;;;1999.90;999.90;;;22.70;99.90;;;;;;5066002;28;20484;-69
2022/10/10 10:22:01;;;;;;;1999.90;999.90;;;22.70;99.90;;;;;;5063504;28;20446;-69
2022/10/10 10:24:35;;;;;;;1999.90;999.90;;;22.50;99.90;;;;;;5065529;28;20458;-69
2022/10/10 10:27:16;;;;;;;1999.90;999.90;;;22.50;99.90;;;;;;5065279;28;21211;-70
2022/10/10 10:29:46;;;;;;;1999.90;999.90;;;22.40;99.90;;;;;;5065079;28;20972;-70
2022/10/10 10:32:21;;;;;;;1999.90;999.90;;;22.20;99.90;;;;;;5065438;28;20560;-70
2022/10/10 10:35:09;;;;;;;1999.90;999.90;;;22.10;99.90;;;;;;5065445;28;20461;-71
2022/10/10 10:37:46;;;;;;;1999.90;999.90;;;22.30;99.90;;;;;;5066086;28;20439;-68
2022/10/10 10:40:26;;;;;;;1999.90;999.90;;;22.50;99.90;;;;;;5065604;28;20446;-70
2022/10/10 10:43:17;;;;;;;1999.90;999.90;;;22.70;99.90;;;;;;5064830;28;20450;-70
2022/10/10 10:45:52;;;;;;;1999.90;999.90;;;22.90;99.90;;;;;;5059591;28;20842;-69
2022/10/10 10:48:26;;;;;;;1999.90;999.90;;;23.10;99.90;;;;;;5055180;28;20576;-69
2022/10/10 10:50:56;;;;;;;1999.90;999.90;;;23.30;99.90;;;;;;5059900;28;20448;-69
2022/10/10 10:53:33;;;;;;;1999.90;999.90;;;23.50;99.90;;;;;;5065104;28;20475;-70
2022/10/10 10:56:14;;;;;;;1999.90;999.90;;;23.60;99.90;;;;;;5064081;28;21023;-70
2022/10/10 10:59:13;;;;;;;1999.90;999.90;;;23.70;99.90;;;;;;5050795;28;20447;-70
2022/10/10 11:01:44;;;;;;;1999.90;999.90;;;23.80;99.90;;;;;;5051564;28;20453;-69
2022/10/10 11:04:24;;;;;;;1999.90;999.90;;;23.60;99.90;;;;;;5065230;28;20797;-69
2022/10/10 11:07:05;;;;;;;1999.90;999.90;;;23.70;99.90;;;;;;5065306;28;20474;-68
2022/10/10 11:09:35;;;;;;;1999.90;999.90;;;24.50;99.90;;;;;;5060760;28;20466;-69
2022/10/10 11:12:13;;;;;;;1999.90;999.90;;;25.50;99.90;;;;;;5054712;28;20487;-70
2022/10/10 11:14:59;;;;;;;1999.90;999.90;;;26.70;99.90;;;;;;5058702;28;20456;-71
2022/10/10 11:17:33;;;;;;;1999.90;999.90;;;27.70;99.90;;;;;;5056981;28;20462;-70
2022/10/10 11:20:06;;;;;;;1999.90;999.90;;;28.40;99.20;;;;;;5068949;28;20544;-70
2022/10/10 11:22:40;;;;;;;1999.90;999.90;;;28.00;97.10;;;;;;5068474;28;20436;-69
2022/10/10 11:25:14;;;;;;;1999.90;999.90;;;28.60;96.90;;;;;;5068745;28;20461;-70
2022/10/10 11:27:46;;;;;;;1999.90;999.90;;;29.30;95.60;;;;;;5066496;28;20920;-70
2022/10/10 11:30:17;;;;;;;1999.90;999.90;;;29.90;94.20;;;;;;5063809;28;20458;-70
2022/10/10 11:32:50;;;;;;;1999.90;999.90;;;30.40;92.80;;;;;;5063595;28;20491;-69
2022/10/10 11:35:26;;;;;;;1999.90;999.90;;;30.30;91.90;;;;;;5053749;28;20484;-69
2022/10/10 11:37:59;;;;;;;1999.90;999.90;;;31.10;92.20;;;;;;5048306;28;20941;-68
2022/10/10 11:40:33;;;;;;;1999.90;999.90;;;30.70;90.50;;;;;;5048372;28;20966;-69
2022/10/10 11:43:05;;;;;;;1999.90;999.90;;;30.00;91.60;;;;;;5048423;28;20432;-69
2022/10/10 11:45:36;;;;;;;1999.90;999.90;;;30.60;90.70;;;;;;5048194;28;20471;-68
2022/10/10 11:48:15;;;;;;;1999.90;999.90;;;31.00;88.20;;;;;;5048238;28;20444;-69
2022/10/10 11:50:43;;;;;;;1999.90;999.90;;;30.90;89.10;;;;;;5048252;28;20483;-69
2022/10/10 11:53:19;;;;;;;1999.90;999.90;;;31.60;86.90;;;;;;5048160;28;20484;-69
2022/10/10 11:55:53;;;;;;;1999.90;999.90;;;31.90;85.70;;;;;;5048151;28;20816;-69
2022/10/10 11:58:31;;;;;;;1999.90;999.90;;;32.70;83.10;;;;;;5048408;28;20440;-69
2022/10/10 12:01:04;;;;;;;1999.90;999.90;;;32.60;81.60;;;;;;5047590;28;20945;-69
2022/10/10 12:03:31;;;;;;;1999.90;999.90;;;33.10;80.30;;;;;;5047564;28;20440;-69
2022/10/10 12:06:02;;;;;;;1999.90;999.90;;;33.00;76.90;;;;;;5048126;28;20464;-68
2022/10/10 12:08:36;;;;;;;1999.90;999.90;;;31.50;79.50;;;;;;5047871;28;20444;-68
2022/10/10 12:11:10;;;;;;;1999.90;999.90;;;31.30;82.10;;;;;;5047782;28;20459;-69